sensor_id;sensor_type;location;lat;lon;timestamp;temperature;humidity
22682;DHT22;11508;50.856;4.380;2023-05-20T00:00:08;15.40;99.90
22682;DHT22;11508;50.856;4.380;2023-05-20T00:02:34;15.50;99.90
22682;DHT22;11508;50.856;4.380;2023-05-20T00:05:00;15.60;99.90
22682;DHT22;11508;50.856;4.380;2023-05-20T00:07:26;15.50;99.90
22682;DHT22;11508;50.856;4.380;2023-05-20T00:09:52;15.50;99.90
22682;DHT22;11508;50.856;4.380;2023-05-20T00:12:18;15.50;99.90
22682;DHT22;11508;50.856;4.380;2023-05-20T00:14:43;15.50;99.90
22682;DHT22;11508;50.856;4.380;2023-05-20T00:17:09;15.40;99.90
22682;DHT22;11508;50.856;4.380;2023-05-20T00:19:35;15.30;99.90
22682;DHT22;11508;50.856;4.380;2023-05-20T00:22:00;15.20;99.90
22682;DHT22;11508;50.856;4.380;2023-05-20T00:24:26;15.30;99.90
22682;DHT22;11508;50.856;4.380;2023-05-20T00:26:52;15.30;99.90
22682;DHT22;11508;50.856;4.380;2023-05-20T00:29:20;15.20;99.90
22682;DHT22;11508;50.856;4.380;2023-05-20T00:31:46;15.10;99.90
22682;DHT22;11508;50.856;4.380;2023-05-20T00:34:12;15.00;99.90
22682;DHT22;11508;50.856;4.380;2023-05-20T00:36:38;15.00;1.00
22682;DHT22;11508;50.856;4.380;2023-05-20T00:39:04;15.10;1.00
22682;DHT22;11508;50.856;4.380;2023-05-20T00:41:30;15.00;1.00
22682;DHT22;11508;50.856;4.380;2023-05-20T00:43:56;15.10;1.00
22682;DHT22;11508;50.856;4.380;2023-05-20T00:46:23;14.90;1.00
22682;DHT22;11508;50.856;4.380;2023-05-20T00:48:50;14.70;1.00
22682;DHT22;11508;50.856;4.380;2023-05-20T00:51:16;14.70;1.00
22682;DHT22;11508;50.856;4.380;2023-05-20T00:53:43;14.70;40.00
22682;DHT22;11508;50.856;4.380;2023-05-20T00:56:09;14.70;99.90
22682;DHT22;11508;50.856;4.380;2023-05-20T00:58:36;14.70;99.90
22682;DHT22;11508;50.856;4.380;2023-05-20T01:01:02;14.70;99.90
22682;DHT22;11508;50.856;4.380;2023-05-20T01:03:29;14.70;99.90
22682;DHT22;11508;50.856;4.380;2023-05-20T01:05:55;14.70;99.90
22682;DHT22;11508;50.856;4.380;2023-05-20T01:08:22;14.60;99.90
22682;DHT22;11508;50.856;4.380;2023-05-20T01:11:08;14.50;99.90
22682;DHT22;11508;50.856;4.380;2023-05-20T01:13:44;14.70;99.90
22682;DHT22;11508;50.856;4.380;2023-05-20T01:16:12;14.70;99.90
22682;DHT22;11508;50.856;4.380;2023-05-20T01:18:40;14.60;99.90
22682;DHT22;11508;50.856;4.380;2023-05-20T01:21:10;14.70;99.90
22682;DHT22;11508;50.856;4.380;2023-05-20T01:23:40;14.50;99.90
22682;DHT22;11508;50.856;4.380;2023-05-20T01:26:06;14.40;99.90
22682;DHT22;11508;50.856;4.380;2023-05-20T01:28:33;14.40;99.90
22682;DHT22;11508;50.856;4.380;2023-05-20T01:31:02;14.40;99.90
22682;DHT22;11508;50.856;4.380;2023-05-20T01:33:31;14.50;99.90
22682;DHT22;11508;50.856;4.380;2023-05-20T01:35:58;14.50;99.90
22682;DHT22;11508;50.856;4.380;2023-05-20T01:38:25;14.40;99.90
22682;DHT22;11508;50.856;4.380;2023-05-20T01:40:52;14.40;99.90
22682;DHT22;11508;50.856;4.380;2023-05-20T01:43:19;14.20;99.90
22682;DHT22;11508;50.856;4.380;2023-05-20T01:45:46;14.10;99.90
22682;DHT22;11508;50.856;4.380;2023-05-20T01:48:11;14.20;99.90
22682;DHT22;11508;50.856;4.380;2023-05-20T01:50:38;14.20;99.90
22682;DHT22;11508;50.856;4.380;2023-05-20T01:53:04;14.20;99.90
22682;DHT22;11508;50.856;4.380;2023-05-20T01:55:30;14.00;99.90
22682;DHT22;11508;50.856;4.380;2023-05-20T01:57:56;14.00;99.90
22682;DHT22;11508;50.856;4.380;2023-05-20T02:00:21;14.00;99.90
22682;DHT22;11508;50.856;4.380;2023-05-20T02:02:47;13.90;1.00
22682;DHT22;11508;50.856;4.380;2023-05-20T02:05:13;14.10;1.00
22682;DHT22;11508;50.856;4.380;2023-05-20T02:07:39;14.10;99.90
22682;DHT22;11508;50.856;4.380;2023-05-20T02:10:05;14.10;99.90
22682;DHT22;11508;50.856;4.380;2023-05-20T02:12:31;14.00;99.90
22682;DHT22;11508;50.856;4.380;2023-05-20T02:14:56;13.90;99.90
22682;DHT22;11508;50.856;4.380;2023-05-20T02:17:22;14.00;99.90
22682;DHT22;11508;50.856;4.380;2023-05-20T02:19:48;13.90;99.90
22682;DHT22;11508;50.856;4.380;2023-05-20T02:22:14;13.80;99.90
22682;DHT22;11508;50.856;4.380;2023-05-20T02:24:40;13.80;1.00
22682;DHT22;11508;50.856;4.380;2023-05-20T02:27:07;13.80;1.00
22682;DHT22;11508;50.856;4.380;2023-05-20T02:29:33;13.90;1.00
22682;DHT22;11508;50.856;4.380;2023-05-20T02:31:59;13.80;99.90
22682;DHT22;11508;50.856;4.380;2023-05-20T02:34:24;13.90;99.90
22682;DHT22;11508;50.856;4.380;2023-05-20T02:36:51;13.90;99.90
22682;DHT22;11508;50.856;4.380;2023-05-20T02:39:17;13.80;99.90
22682;DHT22;11508;50.856;4.380;2023-05-20T02:41:42;13.90;99.90
22682;DHT22;11508;50.856;4.380;2023-05-20T02:44:08;13.90;99.90
22682;DHT22;11508;50.856;4.380;2023-05-20T02:46:34;13.90;99.90
22682;DHT22;11508;50.856;4.380;2023-05-20T02:49:00;13.80;99.90
22682;DHT22;11508;50.856;4.380;2023-05-20T02:51:25;13.70;1.00
22682;DHT22;11508;50.856;4.380;2023-05-20T02:53:51;13.60;1.00
22682;DHT22;11508;50.856;4.380;2023-05-20T02:56:17;13.60;14.50
22682;DHT22;11508;50.856;4.380;2023-05-20T02:58:46;13.70;1.00
22682;DHT22;11508;50.856;4.380;2023-05-20T03:01:12;13.60;1.00
22682;DHT22;11508;50.856;4.380;2023-05-20T03:03:38;13.40;92.40
22682;DHT22;11508;50.856;4.380;2023-05-20T03:06:06;13.40;99.90
22682;DHT22;11508;50.856;4.380;2023-05-20T03:08:32;13.40;99.90
22682;DHT22;11508;50.856;4.380;2023-05-20T03:11:01;13.40;99.90
22682;DHT22;11508;50.856;4.380;2023-05-20T03:13:27;13.40;99.90
22682;DHT22;11508;50.856;4.380;2023-05-20T03:15:53;13.40;1.00
22682;DHT22;11508;50.856;4.380;2023-05-20T03:18:19;13.30;1.00
22682;DHT22;11508;50.856;4.380;2023-05-20T03:20:45;13.20;49.20
22682;DHT22;11508;50.856;4.380;2023-05-20T03:23:11;13.40;1.00
22682;DHT22;11508;50.856;4.380;2023-05-20T03:25:38;13.20;99.90
22682;DHT22;11508;50.856;4.380;2023-05-20T03:28:05;13.50;61.00
22682;DHT22;11508;50.856;4.380;2023-05-20T03:30:31;13.50;1.00
22682;DHT22;11508;50.856;4.380;2023-05-20T03:32:57;13.30;1.00
22682;DHT22;11508;50.856;4.380;2023-05-20T03:35:24;13.20;99.90
22682;DHT22;11508;50.856;4.380;2023-05-20T03:37:50;13.20;99.90
22682;DHT22;11508;50.856;4.380;2023-05-20T03:40:19;13.40;99.90
22682;DHT22;11508;50.856;4.380;2023-05-20T03:42:45;13.10;99.90
22682;DHT22;11508;50.856;4.380;2023-05-20T03:45:11;13.20;1.00
22682;DHT22;11508;50.856;4.380;2023-05-20T03:47:37;13.10;1.00
22682;DHT22;11508;50.856;4.380;2023-05-20T03:50:03;12.90;99.90
22682;DHT22;11508;50.856;4.380;2023-05-20T03:52:28;13.00;99.90
22682;DHT22;11508;50.856;4.380;2023-05-20T03:54:54;13.10;1.00
22682;DHT22;11508;50.856;4.380;2023-05-20T03:57:20;13.10;1.00
22682;DHT22;11508;50.856;4.380;2023-05-20T03:59:46;13.20;99.90
22682;DHT22;11508;50.856;4.380;2023-05-20T04:02:11;13.10;99.90
22682;DHT22;11508;50.856;4.380;2023-05-20T04:04:37;13.30;99.90
22682;DHT22;11508;50.856;4.380;2023-05-20T04:07:03;13.10;99.90
22682;DHT22;11508;50.856;4.380;2023-05-20T04:09:32;13.10;1.00
22682;DHT22;11508;50.856;4.380;2023-05-20T04:11:58;13.10;1.00
22682;DHT22;11508;50.856;4.380;2023-05-20T04:14:23;13.20;1.00
22682;DHT22;11508;50.856;4.380;2023-05-20T04:16:49;13.20;1.00
22682;DHT22;11508;50.856;4.380;2023-05-20T04:19:16;13.40;99.90
22682;DHT22;11508;50.856;4.380;2023-05-20T04:21:44;13.30;99.90
22682;DHT22;11508;50.856;4.380;2023-05-20T04:24:10;13.30;99.90
22682;DHT22;11508;50.856;4.380;2023-05-20T04:26:36;13.20;1.00
22682;DHT22;11508;50.856;4.380;2023-05-20T04:29:02;13.20;91.90
22682;DHT22;11508;50.856;4.380;2023-05-20T04:31:31;13.40;1.00
22682;DHT22;11508;50.856;4.380;2023-05-20T04:33:57;13.70;99.90
22682;DHT22;11508;50.856;4.380;2023-05-20T04:36:23;13.60;99.90
22682;DHT22;11508;50.856;4.380;2023-05-20T04:38:59;13.50;99.90
22682;DHT22;11508;50.856;4.380;2023-05-20T04:41:24;13.40;99.90
22682;DHT22;11508;50.856;4.380;2023-05-20T04:43:51;13.50;99.90
22682;DHT22;11508;50.856;4.380;2023-05-20T04:46:18;13.70;99.90
22682;DHT22;11508;50.856;4.380;2023-05-20T04:48:44;13.70;99.90
22682;DHT22;11508;50.856;4.380;2023-05-20T04:51:12;13.70;99.90
22682;DHT22;11508;50.856;4.380;2023-05-20T04:53:38;13.80;1.00
22682;DHT22;11508;50.856;4.380;2023-05-20T04:56:04;14.00;1.00
22682;DHT22;11508;50.856;4.380;2023-05-20T04:58:30;13.90;99.90
22682;DHT22;11508;50.856;4.380;2023-05-20T05:00:57;13.90;1.00
22682;DHT22;11508;50.856;4.380;2023-05-20T05:03:23;13.90;99.90
22682;DHT22;11508;50.856;4.380;2023-05-20T05:05:49;14.00;99.90
22682;DHT22;11508;50.856;4.380;2023-05-20T05:08:14;14.00;99.90
22682;DHT22;11508;50.856;4.380;2023-05-20T05:10:41;14.00;99.90
22682;DHT22;11508;50.856;4.380;2023-05-20T05:13:07;14.20;99.90
22682;DHT22;11508;50.856;4.380;2023-05-20T05:15:33;14.10;99.90
22682;DHT22;11508;50.856;4.380;2023-05-20T05:17:58;14.00;99.90
22682;DHT22;11508;50.856;4.380;2023-05-20T05:20:24;14.30;99.90
22682;DHT22;11508;50.856;4.380;2023-05-20T05:22:50;14.30;16.40
22682;DHT22;11508;50.856;4.380;2023-05-20T05:25:16;14.30;1.00
22682;DHT22;11508;50.856;4.380;2023-05-20T05:27:42;14.30;1.00
22682;DHT22;11508;50.856;4.380;2023-05-20T05:30:09;14.20;1.00
22682;DHT22;11508;50.856;4.380;2023-05-20T05:32:36;14.30;3.60
22682;DHT22;11508;50.856;4.380;2023-05-20T05:35:02;14.40;1.00
22682;DHT22;11508;50.856;4.380;2023-05-20T05:37:28;14.40;1.00
22682;DHT22;11508;50.856;4.380;2023-05-20T05:39:53;14.70;1.00
22682;DHT22;11508;50.856;4.380;2023-05-20T05:42:19;14.80;99.90
22682;DHT22;11508;50.856;4.380;2023-05-20T05:44:45;15.00;99.90
22682;DHT22;11508;50.856;4.380;2023-05-20T05:47:12;15.30;99.90
22682;DHT22;11508;50.856;4.380;2023-05-20T05:49:37;15.80;1.00
22682;DHT22;11508;50.856;4.380;2023-05-20T05:52:03;16.50;99.90
22682;DHT22;11508;50.856;4.380;2023-05-20T05:54:29;16.80;99.90
22682;DHT22;11508;50.856;4.380;2023-05-20T05:56:55;17.00;1.00
22682;DHT22;11508;50.856;4.380;2023-05-20T05:59:21;17.90;1.00
22682;DHT22;11508;50.856;4.380;2023-05-20T06:01:46;19.20;99.90
22682;DHT22;11508;50.856;4.380;2023-05-20T06:04:12;20.00;99.90
22682;DHT22;11508;50.856;4.380;2023-05-20T06:06:38;21.10;99.90
22682;DHT22;11508;50.856;4.380;2023-05-20T06:09:04;22.30;99.90
22682;DHT22;11508;50.856;4.380;2023-05-20T06:11:30;23.50;31.40
22682;DHT22;11508;50.856;4.380;2023-05-20T06:13:56;23.40;1.00
22682;DHT22;11508;50.856;4.380;2023-05-20T06:16:21;24.10;1.00
22682;DHT22;11508;50.856;4.380;2023-05-20T06:18:47;24.30;1.00
22682;DHT22;11508;50.856;4.380;2023-05-20T06:21:17;24.60;1.00
22682;DHT22;11508;50.856;4.380;2023-05-20T06:23:43;25.50;1.00
22682;DHT22;11508;50.856;4.380;2023-05-20T06:26:09;24.80;1.00
22682;DHT22;11508;50.856;4.380;2023-05-20T06:28:35;25.10;1.00
22682;DHT22;11508;50.856;4.380;2023-05-20T06:31:00;23.80;1.00
22682;DHT22;11508;50.856;4.380;2023-05-20T06:33:26;24.20;1.00
22682;DHT22;11508;50.856;4.380;2023-05-20T06:35:54;24.30;1.00
22682;DHT22;11508;50.856;4.380;2023-05-20T06:38:20;24.60;1.00
22682;DHT22;11508;50.856;4.380;2023-05-20T06:40:47;25.20;1.00
22682;DHT22;11508;50.856;4.380;2023-05-20T06:43:17;25.80;99.90
22682;DHT22;11508;50.856;4.380;2023-05-20T06:45:43;26.50;99.90
22682;DHT22;11508;50.856;4.380;2023-05-20T06:48:09;26.50;99.90
22682;DHT22;11508;50.856;4.380;2023-05-20T06:50:35;26.80;99.90
22682;DHT22;11508;50.856;4.380;2023-05-20T06:53:01;27.70;99.90
22682;DHT22;11508;50.856;4.380;2023-05-20T06:55:27;26.60;99.90
22682;DHT22;11508;50.856;4.380;2023-05-20T06:57:53;26.10;99.90
22682;DHT22;11508;50.856;4.380;2023-05-20T07:00:18;25.00;99.90
22682;DHT22;11508;50.856;4.380;2023-05-20T07:02:44;25.40;99.90
22682;DHT22;11508;50.856;4.380;2023-05-20T07:05:10;24.40;99.90
22682;DHT22;11508;50.856;4.380;2023-05-20T07:07:37;22.70;99.90
22682;DHT22;11508;50.856;4.380;2023-05-20T07:10:03;23.30;99.90
22682;DHT22;11508;50.856;4.380;2023-05-20T07:12:30;24.50;99.90
22682;DHT22;11508;50.856;4.380;2023-05-20T07:14:56;25.40;99.90
22682;DHT22;11508;50.856;4.380;2023-05-20T07:17:23;25.30;99.90
22682;DHT22;11508;50.856;4.380;2023-05-20T07:19:49;26.10;99.90
22682;DHT22;11508;50.856;4.380;2023-05-20T07:22:14;27.30;99.90
22682;DHT22;11508;50.856;4.380;2023-05-20T07:24:40;26.10;99.90
22682;DHT22;11508;50.856;4.380;2023-05-20T07:27:06;26.30;99.90
22682;DHT22;11508;50.856;4.380;2023-05-20T07:29:32;27.30;99.90
22682;DHT22;11508;50.856;4.380;2023-05-20T07:31:57;27.50;99.90
22682;DHT22;11508;50.856;4.380;2023-05-20T07:34:23;27.60;99.90
22682;DHT22;11508;50.856;4.380;2023-05-20T07:36:49;27.50;99.90
22682;DHT22;11508;50.856;4.380;2023-05-20T07:39:15;27.60;99.90
22682;DHT22;11508;50.856;4.380;2023-05-20T07:41:41;27.80;99.90
22682;DHT22;11508;50.856;4.380;2023-05-20T07:44:07;27.50;99.90
22682;DHT22;11508;50.856;4.380;2023-05-20T07:46:36;27.80;99.90
22682;DHT22;11508;50.856;4.380;2023-05-20T07:49:03;27.40;99.90
22682;DHT22;11508;50.856;4.380;2023-05-20T07:51:29;27.30;99.90
22682;DHT22;11508;50.856;4.380;2023-05-20T07:53:56;27.10;99.90
22682;DHT22;11508;50.856;4.380;2023-05-20T07:56:21;26.80;99.90
22682;DHT22;11508;50.856;4.380;2023-05-20T07:58:58;26.20;99.90
22682;DHT22;11508;50.856;4.380;2023-05-20T08:01:26;26.70;99.90
22682;DHT22;11508;50.856;4.380;2023-05-20T08:03:52;26.50;99.90
22682;DHT22;11508;50.856;4.380;2023-05-20T08:06:19;26.30;99.90
22682;DHT22;11508;50.856;4.380;2023-05-20T08:08:45;25.70;99.90
22682;DHT22;11508;50.856;4.380;2023-05-20T08:11:11;26.20;99.90
22682;DHT22;11508;50.856;4.380;2023-05-20T08:13:38;26.30;99.90
22682;DHT22;11508;50.856;4.380;2023-05-20T08:16:04;25.70;99.90
22682;DHT22;11508;50.856;4.380;2023-05-20T08:18:31;25.40;99.90
22682;DHT22;11508;50.856;4.380;2023-05-20T08:20:58;25.00;99.90
22682;DHT22;11508;50.856;4.380;2023-05-20T08:23:24;25.30;99.90
22682;DHT22;11508;50.856;4.380;2023-05-20T08:25:50;25.70;99.90
22682;DHT22;11508;50.856;4.380;2023-05-20T08:28:16;26.70;99.90
22682;DHT22;11508;50.856;4.380;2023-05-20T08:30:43;27.00;99.90
22682;DHT22;11508;50.856;4.380;2023-05-20T08:33:09;27.10;99.90
22682;DHT22;11508;50.856;4.380;2023-05-20T08:35:35;26.80;99.90
22682;DHT22;11508;50.856;4.380;2023-05-20T08:38:04;25.50;99.90
22682;DHT22;11508;50.856;4.380;2023-05-20T08:40:30;25.60;99.90
22682;DHT22;11508;50.856;4.380;2023-05-20T08:42:56;25.60;99.90
22682;DHT22;11508;50.856;4.380;2023-05-20T08:45:24;25.90;99.90
22682;DHT22;11508;50.856;4.380;2023-05-20T08:47:53;26.50;99.90
22682;DHT22;11508;50.856;4.380;2023-05-20T08:50:19;26.80;99.90
22682;DHT22;11508;50.856;4.380;2023-05-20T08:52:47;27.00;99.90
22682;DHT22;11508;50.856;4.380;2023-05-20T08:55:25;26.30;99.90
22682;DHT22;11508;50.856;4.380;2023-05-20T08:57:53;27.30;99.90
22682;DHT22;11508;50.856;4.380;2023-05-20T09:00:20;27.80;99.90
22682;DHT22;11508;50.856;4.380;2023-05-20T09:02:48;27.70;99.90
22682;DHT22;11508;50.856;4.380;2023-05-20T09:05:14;27.80;99.90
22682;DHT22;11508;50.856;4.380;2023-05-20T09:07:39;27.70;99.90
22682;DHT22;11508;50.856;4.380;2023-05-20T09:10:08;27.90;99.90
22682;DHT22;11508;50.856;4.380;2023-05-20T09:12:34;27.70;99.90
22682;DHT22;11508;50.856;4.380;2023-05-20T09:15:00;27.40;99.90
22682;DHT22;11508;50.856;4.380;2023-05-20T09:17:26;27.30;99.90
22682;DHT22;11508;50.856;4.380;2023-05-20T09:19:52;27.70;99.90
22682;DHT22;11508;50.856;4.380;2023-05-20T09:22:22;28.00;99.90
22682;DHT22;11508;50.856;4.380;2023-05-20T09:24:49;27.20;99.90
22682;DHT22;11508;50.856;4.380;2023-05-20T09:27:15;26.20;99.90
22682;DHT22;11508;50.856;4.380;2023-05-20T09:29:41;26.70;99.90
22682;DHT22;11508;50.856;4.380;2023-05-20T09:32:09;27.00;99.90
22682;DHT22;11508;50.856;4.380;2023-05-20T09:34:38;27.30;99.90
22682;DHT22;11508;50.856;4.380;2023-05-20T09:37:06;26.90;99.90
22682;DHT22;11508;50.856;4.380;2023-05-20T09:39:43;26.80;99.90
22682;DHT22;11508;50.856;4.380;2023-05-20T09:42:26;26.00;99.90
22682;DHT22;11508;50.856;4.380;2023-05-20T09:44:54;25.20;99.90
22682;DHT22;11508;50.856;4.380;2023-05-20T09:47:22;25.90;99.90
22682;DHT22;11508;50.856;4.380;2023-05-20T09:49:50;26.40;99.90
22682;DHT22;11508;50.856;4.380;2023-05-20T09:52:17;26.90;99.90
22682;DHT22;11508;50.856;4.380;2023-05-20T09:54:43;26.60;99.90
22682;DHT22;11508;50.856;4.380;2023-05-20T09:57:09;27.20;99.90
22682;DHT22;11508;50.856;4.380;2023-05-20T09:59:37;27.30;99.90
22682;DHT22;11508;50.856;4.380;2023-05-20T10:02:05;27.50;99.90
22682;DHT22;11508;50.856;4.380;2023-05-20T10:04:33;26.50;99.90
22682;DHT22;11508;50.856;4.380;2023-05-20T10:15:34;25.90;99.90
22682;DHT22;11508;50.856;4.380;2023-05-20T10:18:35;26.40;99.90
22682;DHT22;11508;50.856;4.380;2023-05-20T10:21:17;26.50;99.90
22682;DHT22;11508;50.856;4.380;2023-05-20T10:23:43;25.20;99.90
22682;DHT22;11508;50.856;4.380;2023-05-20T10:26:09;25.50;99.90
22682;DHT22;11508;50.856;4.380;2023-05-20T10:28:36;26.10;99.90
22682;DHT22;11508;50.856;4.380;2023-05-20T10:31:14;26.60;99.90
22682;DHT22;11508;50.856;4.380;2023-05-20T10:33:44;26.70;99.90
22682;DHT22;11508;50.856;4.380;2023-05-20T10:36:27;26.60;99.90
22682;DHT22;11508;50.856;4.380;2023-05-20T10:38:58;26.10;99.90
22682;DHT22;11508;50.856;4.380;2023-05-20T10:41:29;26.00;99.90
22682;DHT22;11508;50.856;4.380;2023-05-20T10:44:01;26.30;99.90
22682;DHT22;11508;50.856;4.380;2023-05-20T10:46:28;27.00;99.90
22682;DHT22;11508;50.856;4.380;2023-05-20T10:48:54;27.80;99.90
22682;DHT22;11508;50.856;4.380;2023-05-20T10:51:20;28.30;99.90
22682;DHT22;11508;50.856;4.380;2023-05-20T10:53:46;27.60;99.90
22682;DHT22;11508;50.856;4.380;2023-05-20T10:56:19;27.00;99.90
22682;DHT22;11508;50.856;4.380;2023-05-20T10:58:48;27.10;99.90
22682;DHT22;11508;50.856;4.380;2023-05-20T11:01:15;27.10;99.90
22682;DHT22;11508;50.856;4.380;2023-05-20T11:03:44;27.20;99.90
22682;DHT22;11508;50.856;4.380;2023-05-20T11:06:15;26.50;99.90
22682;DHT22;11508;50.856;4.380;2023-05-20T11:08:42;26.50;99.90
22682;DHT22;11508;50.856;4.380;2023-05-20T11:11:13;26.90;99.90
22682;DHT22;11508;50.856;4.380;2023-05-20T11:13:39;26.80;99.90
22682;DHT22;11508;50.856;4.380;2023-05-20T11:16:05;25.70;99.90
22682;DHT22;11508;50.856;4.380;2023-05-20T11:18:31;25.50;99.90
22682;DHT22;11508;50.856;4.380;2023-05-20T11:20:58;25.20;99.90
22682;DHT22;11508;50.856;4.380;2023-05-20T11:23:26;25.50;99.90
22682;DHT22;11508;50.856;4.380;2023-05-20T11:25:53;26.00;99.90
22682;DHT22;11508;50.856;4.380;2023-05-20T11:28:20;26.40;99.90
22682;DHT22;11508;50.856;4.380;2023-05-20T11:30:47;26.30;99.90
22682;DHT22;11508;50.856;4.380;2023-05-20T11:33:14;26.40;99.90
22682;DHT22;11508;50.856;4.380;2023-05-20T11:35:51;26.90;99.90
22682;DHT22;11508;50.856;4.380;2023-05-20T11:38:18;26.50;99.90
22682;DHT22;11508;50.856;4.380;2023-05-20T11:40:51;26.30;99.90
22682;DHT22;11508;50.856;4.380;2023-05-20T11:43:18;26.50;99.90
22682;DHT22;11508;50.856;4.380;2023-05-20T11:45:45;26.40;99.90
22682;DHT22;11508;50.856;4.380;2023-05-20T11:48:11;25.40;99.90
22682;DHT22;11508;50.856;4.380;2023-05-20T11:50:41;25.00;99.90
22682;DHT22;11508;50.856;4.380;2023-05-20T11:53:17;25.10;99.90
22682;DHT22;11508;50.856;4.380;2023-05-20T11:56:01;25.70;99.90
22682;DHT22;11508;50.856;4.380;2023-05-20T11:58:31;25.60;99.90
22682;DHT22;11508;50.856;4.380;2023-05-20T12:00:57;25.30;99.90
22682;DHT22;11508;50.856;4.380;2023-05-20T12:03:23;24.40;99.90
22682;DHT22;11508;50.856;4.380;2023-05-20T12:05:49;24.30;99.90
22682;DHT22;11508;50.856;4.380;2023-05-20T12:08:15;24.50;99.90
22682;DHT22;11508;50.856;4.380;2023-05-20T12:10:41;24.90;99.90
22682;DHT22;11508;50.856;4.380;2023-05-20T12:13:09;25.10;99.90
22682;DHT22;11508;50.856;4.380;2023-05-20T12:15:37;25.50;99.90
22682;DHT22;11508;50.856;4.380;2023-05-20T12:18:03;25.50;99.90
22682;DHT22;11508;50.856;4.380;2023-05-20T12:20:29;25.10;99.90
22682;DHT22;11508;50.856;4.380;2023-05-20T12:22:56;25.50;99.90
22682;DHT22;11508;50.856;4.380;2023-05-20T12:25:22;25.70;99.90
22682;DHT22;11508;50.856;4.380;2023-05-20T12:27:48;25.50;99.90
22682;DHT22;11508;50.856;4.380;2023-05-20T12:30:19;25.10;99.90
22682;DHT22;11508;50.856;4.380;2023-05-20T12:32:46;25.20;99.90
22682;DHT22;11508;50.856;4.380;2023-05-20T12:35:12;25.40;99.90
22682;DHT22;11508;50.856;4.380;2023-05-20T12:37:39;25.10;99.90
22682;DHT22;11508;50.856;4.380;2023-05-20T12:40:09;24.70;99.90
22682;DHT22;11508;50.856;4.380;2023-05-20T12:42:39;24.60;99.90
22682;DHT22;11508;50.856;4.380;2023-05-20T12:45:06;24.80;99.90
22682;DHT22;11508;50.856;4.380;2023-05-20T12:47:33;25.40;99.90
22682;DHT22;11508;50.856;4.380;2023-05-20T12:49:59;25.10;99.90
22682;DHT22;11508;50.856;4.380;2023-05-20T12:52:26;25.10;99.90
22682;DHT22;11508;50.856;4.380;2023-05-20T12:54:55;25.00;99.90
22682;DHT22;11508;50.856;4.380;2023-05-20T12:57:22;24.60;99.90
22682;DHT22;11508;50.856;4.380;2023-05-20T12:59:48;24.20;99.90
22682;DHT22;11508;50.856;4.380;2023-05-20T13:02:14;24.10;99.90
22682;DHT22;11508;50.856;4.380;2023-05-20T13:04:40;24.30;99.90
22682;DHT22;11508;50.856;4.380;2023-05-20T13:07:05;24.50;99.90
22682;DHT22;11508;50.856;4.380;2023-05-20T13:09:31;24.50;99.90
22682;DHT22;11508;50.856;4.380;2023-05-20T13:11:57;25.00;99.90
22682;DHT22;11508;50.856;4.380;2023-05-20T13:14:23;25.00;99.90
22682;DHT22;11508;50.856;4.380;2023-05-20T13:16:50;25.10;99.90
22682;DHT22;11508;50.856;4.380;2023-05-20T13:19:23;24.90;99.90
22682;DHT22;11508;50.856;4.380;2023-05-20T13:21:49;24.80;99.90
22682;DHT22;11508;50.856;4.380;2023-05-20T13:24:16;24.40;99.90
22682;DHT22;11508;50.856;4.380;2023-05-20T13:26:42;24.20;99.90
22682;DHT22;11508;50.856;4.380;2023-05-20T13:29:08;23.90;99.90
22682;DHT22;11508;50.856;4.380;2023-05-20T13:31:34;23.90;99.90
22682;DHT22;11508;50.856;4.380;2023-05-20T13:34:00;23.60;99.90
22682;DHT22;11508;50.856;4.380;2023-05-20T13:36:26;23.60;99.90
22682;DHT22;11508;50.856;4.380;2023-05-20T13:38:52;23.80;99.90
22682;DHT22;11508;50.856;4.380;2023-05-20T13:41:18;23.80;99.90
22682;DHT22;11508;50.856;4.380;2023-05-20T13:43:44;24.00;99.90
22682;DHT22;11508;50.856;4.380;2023-05-20T13:46:10;24.10;99.90
22682;DHT22;11508;50.856;4.380;2023-05-20T13:48:35;24.20;99.90
22682;DHT22;11508;50.856;4.380;2023-05-20T13:51:01;24.20;99.90
22682;DHT22;11508;50.856;4.380;2023-05-20T13:53:27;24.20;99.90
22682;DHT22;11508;50.856;4.380;2023-05-20T13:55:53;23.90;99.90
22682;DHT22;11508;50.856;4.380;2023-05-20T13:58:19;23.80;99.90
22682;DHT22;11508;50.856;4.380;2023-05-20T14:00:45;23.50;99.90
22682;DHT22;11508;50.856;4.380;2023-05-20T14:03:11;23.40;99.90
22682;DHT22;11508;50.856;4.380;2023-05-20T14:05:37;23.50;99.90
22682;DHT22;11508;50.856;4.380;2023-05-20T14:08:03;23.50;99.90
22682;DHT22;11508;50.856;4.380;2023-05-20T14:10:28;23.40;99.90
22682;DHT22;11508;50.856;4.380;2023-05-20T14:12:56;23.60;99.90
22682;DHT22;11508;50.856;4.380;2023-05-20T14:15:22;23.80;99.90
22682;DHT22;11508;50.856;4.380;2023-05-20T14:17:48;23.60;99.90
22682;DHT22;11508;50.856;4.380;2023-05-20T14:20:14;23.10;99.90
22682;DHT22;11508;50.856;4.380;2023-05-20T14:22:40;23.00;99.90
22682;DHT22;11508;50.856;4.380;2023-05-20T14:25:06;22.90;99.90
22682;DHT22;11508;50.856;4.380;2023-05-20T14:27:32;23.00;99.90
22682;DHT22;11508;50.856;4.380;2023-05-20T14:29:58;22.80;99.90
22682;DHT22;11508;50.856;4.380;2023-05-20T14:32:24;22.80;99.90
22682;DHT22;11508;50.856;4.380;2023-05-20T14:34:50;22.40;99.90
22682;DHT22;11508;50.856;4.380;2023-05-20T14:37:16;22.40;99.90
22682;DHT22;11508;50.856;4.380;2023-05-20T14:39:42;22.50;99.90
22682;DHT22;11508;50.856;4.380;2023-05-20T14:42:08;22.80;99.90
22682;DHT22;11508;50.856;4.380;2023-05-20T14:44:34;22.90;99.90
22682;DHT22;11508;50.856;4.380;2023-05-20T14:46:59;22.70;99.90
22682;DHT22;11508;50.856;4.380;2023-05-20T14:49:25;22.70;99.90
22682;DHT22;11508;50.856;4.380;2023-05-20T14:51:51;22.40;99.90
22682;DHT22;11508;50.856;4.380;2023-05-20T14:54:17;22.50;99.90
22682;DHT22;11508;50.856;4.380;2023-05-20T14:56:49;22.70;99.90
22682;DHT22;11508;50.856;4.380;2023-05-20T14:59:16;22.90;99.90
22682;DHT22;11508;50.856;4.380;2023-05-20T15:01:42;22.60;99.90
22682;DHT22;11508;50.856;4.380;2023-05-20T15:04:08;22.70;99.90
22682;DHT22;11508;50.856;4.380;2023-05-20T15:06:33;22.70;99.90
22682;DHT22;11508;50.856;4.380;2023-05-20T15:09:01;22.90;99.90
22682;DHT22;11508;50.856;4.380;2023-05-20T15:11:27;23.00;99.90
22682;DHT22;11508;50.856;4.380;2023-05-20T15:13:53;22.80;99.90
22682;DHT22;11508;50.856;4.380;2023-05-20T15:16:19;22.90;99.90
22682;DHT22;11508;50.856;4.380;2023-05-20T15:18:49;22.90;99.90
22682;DHT22;11508;50.856;4.380;2023-05-20T15:21:15;22.90;99.90
22682;DHT22;11508;50.856;4.380;2023-05-20T15:23:40;23.00;99.90
22682;DHT22;11508;50.856;4.380;2023-05-20T15:26:06;23.10;99.90
22682;DHT22;11508;50.856;4.380;2023-05-20T15:28:32;23.20;99.90
22682;DHT22;11508;50.856;4.380;2023-05-20T15:30:58;23.40;99.90
22682;DHT22;11508;50.856;4.380;2023-05-20T15:33:24;23.30;99.90
22682;DHT22;11508;50.856;4.380;2023-05-20T15:35:50;23.30;99.90
22682;DHT22;11508;50.856;4.380;2023-05-20T15:38:15;23.30;99.90